الصفحة الرئيسية
METAR-TAF:

METAR-TAF

مطار :

سامارا, روسيا

دائرة عرض: 53-12N, خط طول: 050-09E, ارتفاع: 44 متر

مراقبة الطقس الحالي

تاريخ ووقت الإصدار 35 دقيقة قبل الساعة 13:00UTC
ريح 14 عقدة من الجنوب
درجة الحرارة 25°درجة مئوية
الرطوبة 34%
ضغط 1009 hPa
الرؤية 10 كم أو أكثر
الغيوم لا تقل 1500 م ولا وجود لمزنة ركامية السحاب الأسود

METAR: UWWW 181300Z 19007MPS CAVOK 25/08 Q1009 R15/CLRD63 NOSIG RMK QFE745/0994

زمن: 17:35 (13:35 UTC)

توقعات

تاريخ ووقت الإصدار 2ساعات و 45 دقيقة قبل الساعة 10:50UTC
التوقعات صالحة من18 الساعة 12 UTC إلى 19 الساعة 12 UTC
ريح 16 عقدة من الجنوب تتزايد حتى 29 عقدة
الرؤية 10 كم أو أكثر
غيوم مفككة على ارتفاع 3000 قدم
أصبح
من 18 الساعة 16 UTC إلى 18 الساعة 18 UTC
ريح 12 عقدة من الجنوب/الجنوب الشرقي تتزايد حتى 25 عقدة
مؤقت
من 19 الساعة 06 UTC إلى 19 الساعة 12 UTC
ريح 23 عقدة من الجنوب تتزايد حتى 37 عقدة

TAF: UWWW 181050Z 1812/1912 19008G15MPS 9999 BKN030 TX24/1812Z TN15/1902Z BECMG 1816/1818 15006G13MPS TEMPO 1906/1912 18012G19MPS

أرصاد الطقس والتوقعات من أكثر من 4000 مطار (تقارير الطقس للمطار METAR والتنبؤ بالطقس بالمطارTAF).

المحطات المتاحة هي النقط الصفراء والحمراء على الخريطة.

حرك المؤشر فوق النقطة لمعرفة اسم المحطة.

ثم انقر لمعرفة أرصاد وتوقعات الطقس.

لتغيير الخارطة: اضغط على الأزرار الخضراء مع رمز الصليب الأسود للتكبير. على الزر الأخضر مع شرطة للتصغير، أو على الأسهم الخضراء للخرائط المجاورة.


METAR-TAF: